sensor_id;sensor_type;location;lat;lon;timestamp;P1;P2;P0
57049;PMS7003;42935;50.966;16.992;2024-02-16T00:02:48;38;29;20
57049;PMS7003;42935;50.966;16.992;2024-02-16T00:06:11;35;31;19
57049;PMS7003;42935;50.966;16.992;2024-02-16T00:09:37;39;31;19
57049;PMS7003;42935;50.966;16.992;2024-02-16T00:12:58;35;29;18
57049;PMS7003;42935;50.966;16.992;2024-02-16T00:16:18;42;29;20
57049;PMS7003;42935;50.966;16.992;2024-02-16T00:19:40;32;28;19
57049;PMS7003;42935;50.966;16.992;2024-02-16T00:23:05;41;31;20
57049;PMS7003;42935;50.966;16.992;2024-02-16T00:26:27;39;32;20
57049;PMS7003;42935;50.966;16.992;2024-02-16T00:29:44;38;33;21
57049;PMS7003;42935;50.966;16.992;2024-02-16T00:33:13;42;34;20
57049;PMS7003;42935;50.966;16.992;2024-02-16T00:37:13;44;34;22
57049;PMS7003;42935;50.966;16.992;2024-02-16T00:40:30;39;31;19
57049;PMS7003;42935;50.966;16.992;2024-02-16T00:43:53;40;33;22
57049;PMS7003;42935;50.966;16.992;2024-02-16T00:47:15;41;31;21
57049;PMS7003;42935;50.966;16.992;2024-02-16T00:50:35;34;27;19
57049;PMS7003;42935;50.966;16.992;2024-02-16T00:53:54;35;29;18
57049;PMS7003;42935;50.966;16.992;2024-02-16T00:57:15;34;28;18
57049;PMS7003;42935;50.966;16.992;2024-02-16T01:00:35;35;27;18
57049;PMS7003;42935;50.966;16.992;2024-02-16T01:03:55;38;28;20
57049;PMS7003;42935;50.966;16.992;2024-02-16T01:07:16;39;32;18
57049;PMS7003;42935;50.966;16.992;2024-02-16T01:10:31;28;26;18
57049;PMS7003;42935;50.966;16.992;2024-02-16T01:14:21;35;28;18
57049;PMS7003;42935;50.966;16.992;2024-02-16T01:17:38;30;27;17
57049;PMS7003;42935;50.966;16.992;2024-02-16T01:20:58;30;27;15
57049;PMS7003;42935;50.966;16.992;2024-02-16T01:24:19;31;27;15
57049;PMS7003;42935;50.966;16.992;2024-02-16T01:27:38;29;21;14
57049;PMS7003;42935;50.966;16.992;2024-02-16T01:31:05;26;20;14
57049;PMS7003;42935;50.966;16.992;2024-02-16T01:34:27;25;22;13
57049;PMS7003;42935;50.966;16.992;2024-02-16T01:37:48;26;21;15
57049;PMS7003;42935;50.966;16.992;2024-02-16T01:41:08;27;21;14
57049;PMS7003;42935;50.966;16.992;2024-02-16T01:44:32;26;19;12
57049;PMS7003;42935;50.966;16.992;2024-02-16T01:47:50;22;17;12
57049;PMS7003;42935;50.966;16.992;2024-02-16T01:51:10;29;24;15
57049;PMS7003;42935;50.966;16.992;2024-02-16T01:54:30;24;22;13
57049;PMS7003;42935;50.966;16.992;2024-02-16T01:57:51;23;18;12
57049;PMS7003;42935;50.966;16.992;2024-02-16T02:01:10;27;21;13
57049;PMS7003;42935;50.966;16.992;2024-02-16T02:04:33;19;15;10
57049;PMS7003;42935;50.966;16.992;2024-02-16T02:07:54;20;15;9
57049;PMS7003;42935;50.966;16.992;2024-02-16T02:11:14;21;13;9
57049;PMS7003;42935;50.966;16.992;2024-02-16T02:15:09;21;18;11
57049;PMS7003;42935;50.966;16.992;2024-02-16T02:18:57;19;14;10
57049;PMS7003;42935;50.966;16.992;2024-02-16T02:22:18;21;17;10
57049;PMS7003;42935;50.966;16.992;2024-02-16T02:25:46;19;14;9
57049;PMS7003;42935;50.966;16.992;2024-02-16T02:29:07;16;11;9
57049;PMS7003;42935;50.966;16.992;2024-02-16T02:32:27;17;11;8
57049;PMS7003;42935;50.966;16.992;2024-02-16T02:35:47;17;14;10
57049;PMS7003;42935;50.966;16.992;2024-02-16T02:39:04;19;17;11
57049;PMS7003;42935;50.966;16.992;2024-02-16T02:42:24;16;14;11
57049;PMS7003;42935;50.966;16.992;2024-02-16T02:45:45;22;14;10
57049;PMS7003;42935;50.966;16.992;2024-02-16T02:49:00;16;14;9
57049;PMS7003;42935;50.966;16.992;2024-02-16T02:52:21;15;11;7
57049;PMS7003;42935;50.966;16.992;2024-02-16T02:55:39;19;13;8
57049;PMS7003;42935;50.966;16.992;2024-02-16T02:58:58;13;10;8
57049;PMS7003;42935;50.966;16.992;2024-02-16T03:02:21;18;11;8
57049;PMS7003;42935;50.966;16.992;2024-02-16T03:05:44;18;11;8
57049;PMS7003;42935;50.966;16.992;2024-02-16T03:09:02;14;10;7
57049;PMS7003;42935;50.966;16.992;2024-02-16T03:12:24;14;10;7
57049;PMS7003;42935;50.966;16.992;2024-02-16T03:15:41;9;9;5
57049;PMS7003;42935;50.966;16.992;2024-02-16T03:19:01;13;10;6
57049;PMS7003;42935;50.966;16.992;2024-02-16T03:22:27;14;11;7
57049;PMS7003;42935;50.966;16.992;2024-02-16T03:25:51;10;7;5
57049;PMS7003;42935;50.966;16.992;2024-02-16T03:29:09;11;9;6
57049;PMS7003;42935;50.966;16.992;2024-02-16T03:32:33;13;10;7
57049;PMS7003;42935;50.966;16.992;2024-02-16T03:35:53;11;8;5
57049;PMS7003;42935;50.966;16.992;2024-02-16T03:39:16;12;8;5
57049;PMS7003;42935;50.966;16.992;2024-02-16T03:43:07;14;11;7
57049;PMS7003;42935;50.966;16.992;2024-02-16T03:46:26;11;9;6
57049;PMS7003;42935;50.966;16.992;2024-02-16T03:49:45;14;10;7
57049;PMS7003;42935;50.966;16.992;2024-02-16T03:53:00;15;10;7
57049;PMS7003;42935;50.966;16.992;2024-02-16T03:56:21;15;9;6
57049;PMS7003;42935;50.966;16.992;2024-02-16T04:00:08;18;13;9
57049;PMS7003;42935;50.966;16.992;2024-02-16T04:03:28;19;13;9
57049;PMS7003;42935;50.966;16.992;2024-02-16T04:06:53;15;12;8
57049;PMS7003;42935;50.966;16.992;2024-02-16T04:10:09;14;11;8
57049;PMS7003;42935;50.966;16.992;2024-02-16T04:13:28;14;11;7
57049;PMS7003;42935;50.966;16.992;2024-02-16T04:16:45;21;14;9
57049;PMS7003;42935;50.966;16.992;2024-02-16T04:20:14;58;42;27
57049;PMS7003;42935;50.966;16.992;2024-02-16T04:23:35;30;22;15
57049;PMS7003;42935;50.966;16.992;2024-02-16T04:26:58;20;17;11
57049;PMS7003;42935;50.966;16.992;2024-02-16T04:30:18;21;16;10
57049;PMS7003;42935;50.966;16.992;2024-02-16T04:33:38;23;18;12
57049;PMS7003;42935;50.966;16.992;2024-02-16T04:36:58;30;23;16
57049;PMS7003;42935;50.966;16.992;2024-02-16T04:40:21;27;21;15
57049;PMS7003;42935;50.966;16.992;2024-02-16T04:43:41;35;31;17
57049;PMS7003;42935;50.966;16.992;2024-02-16T04:47:08;52;38;25
57049;PMS7003;42935;50.966;16.992;2024-02-16T04:50:32;47;34;21
57049;PMS7003;42935;50.966;16.992;2024-02-16T04:53:50;43;34;22
57049;PMS7003;42935;50.966;16.992;2024-02-16T04:57:09;61;42;29
57049;PMS7003;42935;50.966;16.992;2024-02-16T05:00:27;53;41;28
57049;PMS7003;42935;50.966;16.992;2024-02-16T05:03:53;52;36;25
57049;PMS7003;42935;50.966;16.992;2024-02-16T05:07:18;49;38;25
57049;PMS7003;42935;50.966;16.992;2024-02-16T05:10:41;48;38;23
57049;PMS7003;42935;50.966;16.992;2024-02-16T05:14:38;51;38;23
57049;PMS7003;42935;50.966;16.992;2024-02-16T05:18:11;54;38;23
57049;PMS7003;42935;50.966;16.992;2024-02-16T05:21:32;45;35;21
57049;PMS7003;42935;50.966;16.992;2024-02-16T05:24:53;43;33;21
57049;PMS7003;42935;50.966;16.992;2024-02-16T05:28:14;42;29;18
57049;PMS7003;42935;50.966;16.992;2024-02-16T05:31:42;45;33;21
57049;PMS7003;42935;50.966;16.992;2024-02-16T05:35:06;37;32;21
57049;PMS7003;42935;50.966;16.992;2024-02-16T05:38:30;42;28;18
57049;PMS7003;42935;50.966;16.992;2024-02-16T05:42:01;37;28;20
57049;PMS7003;42935;50.966;16.992;2024-02-16T05:45:29;37;29;18
57049;PMS7003;42935;50.966;16.992;2024-02-16T05:48:52;41;32;19
57049;PMS7003;42935;50.966;16.992;2024-02-16T05:52:11;40;27;18
57049;PMS7003;42935;50.966;16.992;2024-02-16T05:55:34;47;33;20
57049;PMS7003;42935;50.966;16.992;2024-02-16T05:59:07;47;38;24
57049;PMS7003;42935;50.966;16.992;2024-02-16T06:02:42;47;34;22
57049;PMS7003;42935;50.966;16.992;2024-02-16T06:05:58;39;33;22
57049;PMS7003;42935;50.966;16.992;2024-02-16T06:09:18;36;27;19
57049;PMS7003;42935;50.966;16.992;2024-02-16T06:12:44;42;32;21
57049;PMS7003;42935;50.966;16.992;2024-02-16T06:16:05;42;31;21
57049;PMS7003;42935;50.966;16.992;2024-02-16T06:19:26;40;29;18
57049;PMS7003;42935;50.966;16.992;2024-02-16T06:22:55;40;33;19
57049;PMS7003;42935;50.966;16.992;2024-02-16T06:26:12;34;26;20
57049;PMS7003;42935;50.966;16.992;2024-02-16T06:29:34;39;29;19
57049;PMS7003;42935;50.966;16.992;2024-02-16T06:32:58;39;30;20
57049;PMS7003;42935;50.966;16.992;2024-02-16T06:36:24;37;28;18
57049;PMS7003;42935;50.966;16.992;2024-02-16T06:39:46;38;26;18
57049;PMS7003;42935;50.966;16.992;2024-02-16T06:43:11;34;27;17
57049;PMS7003;42935;50.966;16.992;2024-02-16T06:46:32;36;26;19
57049;PMS7003;42935;50.966;16.992;2024-02-16T06:49:52;33;23;15
57049;PMS7003;42935;50.966;16.992;2024-02-16T06:53:14;32;27;17
57049;PMS7003;42935;50.966;16.992;2024-02-16T06:56:34;37;26;17
57049;PMS7003;42935;50.966;16.992;2024-02-16T06:59:57;36;26;17
57049;PMS7003;42935;50.966;16.992;2024-02-16T07:03:15;32;28;17
57049;PMS7003;42935;50.966;16.992;2024-02-16T07:06:37;35;28;20
57049;PMS7003;42935;50.966;16.992;2024-02-16T07:09:59;39;31;19
57049;PMS7003;42935;50.966;16.992;2024-02-16T07:13:23;32;26;17
57049;PMS7003;42935;50.966;16.992;2024-02-16T07:17:13;34;26;18
57049;PMS7003;42935;50.966;16.992;2024-02-16T07:20:31;35;28;20
57049;PMS7003;42935;50.966;16.992;2024-02-16T07:23:59;30;27;18
57049;PMS7003;42935;50.966;16.992;2024-02-16T07:27:21;25;20;13
57049;PMS7003;42935;50.966;16.992;2024-02-16T07:30:50;29;26;15
57049;PMS7003;42935;50.966;16.992;2024-02-16T07:34:12;31;24;15
57049;PMS7003;42935;50.966;16.992;2024-02-16T07:37:37;30;21;14
57049;PMS7003;42935;50.966;16.992;2024-02-16T07:40:57;25;20;14
57049;PMS7003;42935;50.966;16.992;2024-02-16T07:44:24;24;21;14
57049;PMS7003;42935;50.966;16.992;2024-02-16T07:47:46;25;21;13
57049;PMS7003;42935;50.966;16.992;2024-02-16T07:51:05;24;21;13
57049;PMS7003;42935;50.966;16.992;2024-02-16T07:54:28;25;21;12
57049;PMS7003;42935;50.966;16.992;2024-02-16T07:58:23;29;21;15
57049;PMS7003;42935;50.966;16.992;2024-02-16T08:01:44;25;20;14
57049;PMS7003;42935;50.966;16.992;2024-02-16T08:05:05;24;19;14
57049;PMS7003;42935;50.966;16.992;2024-02-16T08:08:41;27;24;16
57049;PMS7003;42935;50.966;16.992;2024-02-16T08:12:02;28;23;16
57049;PMS7003;42935;50.966;16.992;2024-02-16T08:15:23;24;19;13
57049;PMS7003;42935;50.966;16.992;2024-02-16T08:18:43;25;20;13
57049;PMS7003;42935;50.966;16.992;2024-02-16T08:22:06;28;22;17
57049;PMS7003;42935;50.966;16.992;2024-02-16T08:25:28;23;22;14
57049;PMS7003;42935;50.966;16.992;2024-02-16T08:28:51;32;24;15
57049;PMS7003;42935;50.966;16.992;2024-02-16T08:32:13;29;24;15
57049;PMS7003;42935;50.966;16.992;2024-02-16T08:35:36;21;17;13
57049;PMS7003;42935;50.966;16.992;2024-02-16T08:39:00;26;21;16
57049;PMS7003;42935;50.966;16.992;2024-02-16T08:42:49;22;18;14
57049;PMS7003;42935;50.966;16.992;2024-02-16T08:46:09;24;19;13
57049;PMS7003;42935;50.966;16.992;2024-02-16T08:49:29;20;18;13
57049;PMS7003;42935;50.966;16.992;2024-02-16T08:52:55;24;18;12
57049;PMS7003;42935;50.966;16.992;2024-02-16T08:56:16;18;15;12
57049;PMS7003;42935;50.966;16.992;2024-02-16T08:59:32;19;18;13
57049;PMS7003;42935;50.966;16.992;2024-02-16T09:02:59;24;21;14
57049;PMS7003;42935;50.966;16.992;2024-02-16T09:06:28;23;19;14
57049;PMS7003;42935;50.966;16.992;2024-02-16T09:09:47;24;18;13
57049;PMS7003;42935;50.966;16.992;2024-02-16T09:13:39;22;18;13
57049;PMS7003;42935;50.966;16.992;2024-02-16T09:17:00;17;14;9
57049;PMS7003;42935;50.966;16.992;2024-02-16T09:20:18;20;16;11
57049;PMS7003;42935;50.966;16.992;2024-02-16T09:23:41;18;16;10
57049;PMS7003;42935;50.966;16.992;2024-02-16T09:27:02;15;14;9
57049;PMS7003;42935;50.966;16.992;2024-02-16T09:30:20;15;13;9
57049;PMS7003;42935;50.966;16.992;2024-02-16T09:34:13;15;12;9
57049;PMS7003;42935;50.966;16.992;2024-02-16T09:38:04;17;13;9
57049;PMS7003;42935;50.966;16.992;2024-02-16T09:41:25;13;10;7
57049;PMS7003;42935;50.966;16.992;2024-02-16T09:44:46;11;11;7
57049;PMS7003;42935;50.966;16.992;2024-02-16T09:48:08;13;9;8
57049;PMS7003;42935;50.966;16.992;2024-02-16T09:51:30;11;10;7
57049;PMS7003;42935;50.966;16.992;2024-02-16T09:55:25;13;11;7
57049;PMS7003;42935;50.966;16.992;2024-02-16T09:58:51;13;11;8
57049;PMS7003;42935;50.966;16.992;2024-02-16T10:02:14;16;11;9
57049;PMS7003;42935;50.966;16.992;2024-02-16T10:05:36;15;10;7
57049;PMS7003;42935;50.966;16.992;2024-02-16T10:08:57;13;11;8
57049;PMS7003;42935;50.966;16.992;2024-02-16T10:12:19;9;9;6
57049;PMS7003;42935;50.966;16.992;2024-02-16T10:15:40;14;10;7
57049;PMS7003;42935;50.966;16.992;2024-02-16T10:22:25;11;10;8
57049;PMS7003;42935;50.966;16.992;2024-02-16T10:25:42;12;8;6
57049;PMS7003;42935;50.966;16.992;2024-02-16T10:29:02;12;9;7
57049;PMS7003;42935;50.966;16.992;2024-02-16T10:32:24;8;8;6
57049;PMS7003;42935;50.966;16.992;2024-02-16T10:36:15;9;8;6
57049;PMS7003;42935;50.966;16.992;2024-02-16T10:39:36;11;8;6
57049;PMS7003;42935;50.966;16.992;2024-02-16T10:43:03;9;8;6
57049;PMS7003;42935;50.966;16.992;2024-02-16T10:46:25;7;7;5
57049;PMS7003;42935;50.966;16.992;2024-02-16T10:49:43;9;7;6
57049;PMS7003;42935;50.966;16.992;2024-02-16T10:53:01;8;8;7
57049;PMS7003;42935;50.966;16.992;2024-02-16T10:56:37;10;8;6
57049;PMS7003;42935;50.966;16.992;2024-02-16T10:59:58;11;9;6
57049;PMS7003;42935;50.966;16.992;2024-02-16T11:03:28;9;7;6
57049;PMS7003;42935;50.966;16.992;2024-02-16T11:06:51;10;8;6
57049;PMS7003;42935;50.966;16.992;2024-02-16T11:10:14;14;8;6
57049;PMS7003;42935;50.966;16.992;2024-02-16T11:13:35;12;9;6
57049;PMS7003;42935;50.966;16.992;2024-02-16T11:16:58;9;7;6
57049;PMS7003;42935;50.966;16.992;2024-02-16T11:20:16;10;9;7
57049;PMS7003;42935;50.966;16.992;2024-02-16T11:23:40;10;8;7
57049;PMS7003;42935;50.966;16.992;2024-02-16T11:27:02;12;9;6
57049;PMS7003;42935;50.966;16.992;2024-02-16T11:30:21;9;8;6
57049;PMS7003;42935;50.966;16.992;2024-02-16T11:33:43;10;8;7
57049;PMS7003;42935;50.966;16.992;2024-02-16T11:37:01;9;8;6
57049;PMS7003;42935;50.966;16.992;2024-02-16T11:40:24;10;8;7
57049;PMS7003;42935;50.966;16.992;2024-02-16T11:43:45;8;7;6
57049;PMS7003;42935;50.966;16.992;2024-02-16T11:47:05;8;8;6
57049;PMS7003;42935;50.966;16.992;2024-02-16T11:50:33;8;7;6
57049;PMS7003;42935;50.966;16.992;2024-02-16T11:53:57;9;8;6
57049;PMS7003;42935;50.966;16.992;2024-02-16T11:57:19;8;8;6
57049;PMS7003;42935;50.966;16.992;2024-02-16T12:00:41;7;7;6
57049;PMS7003;42935;50.966;16.992;2024-02-16T12:04:07;11;7;5
57049;PMS7003;42935;50.966;16.992;2024-02-16T12:07:29;8;7;5
57049;PMS7003;42935;50.966;16.992;2024-02-16T12:11:20;8;8;6
57049;PMS7003;42935;50.966;16.992;2024-02-16T12:14:42;8;8;7
57049;PMS7003;42935;50.966;16.992;2024-02-16T12:18:03;11;8;6
57049;PMS7003;42935;50.966;16.992;2024-02-16T12:21:24;14;9;7
57049;PMS7003;42935;50.966;16.992;2024-02-16T12:24:42;9;7;5
57049;PMS7003;42935;50.966;16.992;2024-02-16T12:28:04;9;7;5
57049;PMS7003;42935;50.966;16.992;2024-02-16T12:31:26;10;7;6
57049;PMS7003;42935;50.966;16.992;2024-02-16T12:35:16;10;8;6
57049;PMS7003;42935;50.966;16.992;2024-02-16T12:38:38;10;8;6
57049;PMS7003;42935;50.966;16.992;2024-02-16T12:41:57;9;7;5
57049;PMS7003;42935;50.966;16.992;2024-02-16T12:45:21;10;7;5
57049;PMS7003;42935;50.966;16.992;2024-02-16T12:48:44;9;8;5
57049;PMS7003;42935;50.966;16.992;2024-02-16T12:52:09;9;8;5
57049;PMS7003;42935;50.966;16.992;2024-02-16T12:55:30;9;8;6
57049;PMS7003;42935;50.966;16.992;2024-02-16T12:58:53;10;8;5
57049;PMS7003;42935;50.966;16.992;2024-02-16T13:02:16;10;9;6
57049;PMS7003;42935;50.966;16.992;2024-02-16T13:05:36;11;8;6
57049;PMS7003;42935;50.966;16.992;2024-02-16T13:09:01;8;8;5
57049;PMS7003;42935;50.966;16.992;2024-02-16T13:12:55;9;7;6
57049;PMS7003;42935;50.966;16.992;2024-02-16T13:16:16;12;7;5
57049;PMS7003;42935;50.966;16.992;2024-02-16T13:19:36;8;7;5
57049;PMS7003;42935;50.966;16.992;2024-02-16T13:22:59;10;9;6
57049;PMS7003;42935;50.966;16.992;2024-02-16T13:26:20;11;10;7
57049;PMS7003;42935;50.966;16.992;2024-02-16T13:30:11;10;9;6
57049;PMS7003;42935;50.966;16.992;2024-02-16T13:33:34;9;8;6
57049;PMS7003;42935;50.966;16.992;2024-02-16T13:36:55;10;9;7
57049;PMS7003;42935;50.966;16.992;2024-02-16T13:40:18;12;9;7
57049;PMS7003;42935;50.966;16.992;2024-02-16T13:43:40;11;8;7
57049;PMS7003;42935;50.966;16.992;2024-02-16T13:47:32;9;7;6
57049;PMS7003;42935;50.966;16.992;2024-02-16T13:50:53;11;8;7
57049;PMS7003;42935;50.966;16.992;2024-02-16T13:54:26;10;9;6
57049;PMS7003;42935;50.966;16.992;2024-02-16T13:58:21;11;10;8
57049;PMS7003;42935;50.966;16.992;2024-02-16T14:01:40;11;9;8
57049;PMS7003;42935;50.966;16.992;2024-02-16T14:04:59;10;9;7
57049;PMS7003;42935;50.966;16.992;2024-02-16T14:08:21;14;10;7
57049;PMS7003;42935;50.966;16.992;2024-02-16T14:12:12;13;10;8
57049;PMS7003;42935;50.966;16.992;2024-02-16T14:15:32;11;9;7
57049;PMS7003;42935;50.966;16.992;2024-02-16T14:18:51;11;9;8
57049;PMS7003;42935;50.966;16.992;2024-02-16T14:22:14;15;9;8
57049;PMS7003;42935;50.966;16.992;2024-02-16T14:25:38;12;12;8
57049;PMS7003;42935;50.966;16.992;2024-02-16T14:28:59;13;9;7
57049;PMS7003;42935;50.966;16.992;2024-02-16T14:32:21;15;11;8
57049;PMS7003;42935;50.966;16.992;2024-02-16T14:35:43;11;8;6
57049;PMS7003;42935;50.966;16.992;2024-02-16T14:39:06;10;9;8
57049;PMS7003;42935;50.966;16.992;2024-02-16T14:42:34;15;10;8
57049;PMS7003;42935;50.966;16.992;2024-02-16T14:45:59;14;11;8
57049;PMS7003;42935;50.966;16.992;2024-02-16T14:49:22;11;10;8
57049;PMS7003;42935;50.966;16.992;2024-02-16T14:52:43;16;14;10
57049;PMS7003;42935;50.966;16.992;2024-02-16T14:56:04;12;11;8
57049;PMS7003;42935;50.966;16.992;2024-02-16T14:59:25;12;11;8
57049;PMS7003;42935;50.966;16.992;2024-02-16T15:02:49;16;12;9
57049;PMS7003;42935;50.966;16.992;2024-02-16T15:06:43;14;13;9
57049;PMS7003;42935;50.966;16.992;2024-02-16T15:10:36;14;13;9
57049;PMS7003;42935;50.966;16.992;2024-02-16T15:14:00;17;15;9
57049;PMS7003;42935;50.966;16.992;2024-02-16T15:17:25;14;13;9
57049;PMS7003;42935;50.966;16.992;2024-02-16T15:20:43;14;13;9
57049;PMS7003;42935;50.966;16.992;2024-02-16T15:24:03;13;11;9
57049;PMS7003;42935;50.966;16.992;2024-02-16T15:27:26;15;12;9
57049;PMS7003;42935;50.966;16.992;2024-02-16T15:30:46;11;10;8
57049;PMS7003;42935;50.966;16.992;2024-02-16T15:34:08;20;14;9
57049;PMS7003;42935;50.966;16.992;2024-02-16T15:37:30;19;14;10
57049;PMS7003;42935;50.966;16.992;2024-02-16T15:41:27;20;16;11
57049;PMS7003;42935;50.966;16.992;2024-02-16T15:44:48;18;15;10
57049;PMS7003;42935;50.966;16.992;2024-02-16T15:48:09;17;13;10
57049;PMS7003;42935;50.966;16.992;2024-02-16T15:51:34;15;14;11
57049;PMS7003;42935;50.966;16.992;2024-02-16T15:54:55;18;15;11
57049;PMS7003;42935;50.966;16.992;2024-02-16T15:58:14;18;14;11
57049;PMS7003;42935;50.966;16.992;2024-02-16T16:01:35;15;13;9
57049;PMS7003;42935;50.966;16.992;2024-02-16T16:04:56;14;12;9
57049;PMS7003;42935;50.966;16.992;2024-02-16T16:08:18;17;14;10
57049;PMS7003;42935;50.966;16.992;2024-02-16T16:12:09;13;13;9
57049;PMS7003;42935;50.966;16.992;2024-02-16T16:15:27;16;13;10
57049;PMS7003;42935;50.966;16.992;2024-02-16T16:18:50;17;14;10
57049;PMS7003;42935;50.966;16.992;2024-02-16T16:22:14;18;13;10
57049;PMS7003;42935;50.966;16.992;2024-02-16T16:25:35;16;15;10
57049;PMS7003;42935;50.966;16.992;2024-02-16T16:29:26;17;13;11
57049;PMS7003;42935;50.966;16.992;2024-02-16T16:32:46;16;14;10
57049;PMS7003;42935;50.966;16.992;2024-02-16T16:36:05;19;15;11
57049;PMS7003;42935;50.966;16.992;2024-02-16T16:39:37;17;14;10
57049;PMS7003;42935;50.966;16.992;2024-02-16T16:43:27;18;15;10
57049;PMS7003;42935;50.966;16.992;2024-02-16T16:46:50;18;15;10
57049;PMS7003;42935;50.966;16.992;2024-02-16T16:50:18;24;14;12
57049;PMS7003;42935;50.966;16.992;2024-02-16T16:53:36;16;15;11
57049;PMS7003;42935;50.966;16.992;2024-02-16T16:57:30;21;16;10
57049;PMS7003;42935;50.966;16.992;2024-02-16T17:00:47;16;15;10
57049;PMS7003;42935;50.966;16.992;2024-02-16T17:04:08;18;15;10
57049;PMS7003;42935;50.966;16.992;2024-02-16T17:07:25;18;15;10
57049;PMS7003;42935;50.966;16.992;2024-02-16T17:10:46;16;13;10
57049;PMS7003;42935;50.966;16.992;2024-02-16T17:14:08;16;15;9
57049;PMS7003;42935;50.966;16.992;2024-02-16T17:21:10;14;12;9
57049;PMS7003;42935;50.966;16.992;2024-02-16T17:24:32;16;13;9
57049;PMS7003;42935;50.966;16.992;2024-02-16T17:27:53;13;12;8
57049;PMS7003;42935;50.966;16.992;2024-02-16T17:31:20;20;14;11
57049;PMS7003;42935;50.966;16.992;2024-02-16T17:35:08;18;15;11
57049;PMS7003;42935;50.966;16.992;2024-02-16T17:38:29;17;15;10
57049;PMS7003;42935;50.966;16.992;2024-02-16T17:41:57;20;16;11
57049;PMS7003;42935;50.966;16.992;2024-02-16T17:45:19;18;15;10
57049;PMS7003;42935;50.966;16.992;2024-02-16T17:48:40;16;13;10
57049;PMS7003;42935;50.966;16.992;2024-02-16T17:52:02;18;13;9
57049;PMS7003;42935;50.966;16.992;2024-02-16T17:55:24;15;12;9
57049;PMS7003;42935;50.966;16.992;2024-02-16T17:58:45;18;13;10
57049;PMS7003;42935;50.966;16.992;2024-02-16T18:02:03;14;12;9
57049;PMS7003;42935;50.966;16.992;2024-02-16T18:05:26;18;12;8
57049;PMS7003;42935;50.966;16.992;2024-02-16T18:08:51;12;11;8
57049;PMS7003;42935;50.966;16.992;2024-02-16T18:12:13;20;15;11
57049;PMS7003;42935;50.966;16.992;2024-02-16T18:15:36;15;13;9
57049;PMS7003;42935;50.966;16.992;2024-02-16T18:18:53;14;11;7
57049;PMS7003;42935;50.966;16.992;2024-02-16T18:22:41;14;13;10
57049;PMS7003;42935;50.966;16.992;2024-02-16T18:26:04;14;14;10
57049;PMS7003;42935;50.966;16.992;2024-02-16T18:29:25;17;12;9
57049;PMS7003;42935;50.966;16.992;2024-02-16T18:32:42;16;13;9
57049;PMS7003;42935;50.966;16.992;2024-02-16T18:36:35;17;13;9
57049;PMS7003;42935;50.966;16.992;2024-02-16T18:40:33;18;12;8
57049;PMS7003;42935;50.966;16.992;2024-02-16T18:43:54;16;12;9
57049;PMS7003;42935;50.966;16.992;2024-02-16T18:47:14;16;12;9
57049;PMS7003;42935;50.966;16.992;2024-02-16T18:50:32;16;13;9
57049;PMS7003;42935;50.966;16.992;2024-02-16T18:53:49;21;13;8
57049;PMS7003;42935;50.966;16.992;2024-02-16T18:57:11;15;12;8
57049;PMS7003;42935;50.966;16.992;2024-02-16T19:00:32;14;11;8
57049;PMS7003;42935;50.966;16.992;2024-02-16T19:03:56;18;15;10
57049;PMS7003;42935;50.966;16.992;2024-02-16T19:07:13;15;12;9
57049;PMS7003;42935;50.966;16.992;2024-02-16T19:11:07;13;10;8
57049;PMS7003;42935;50.966;16.992;2024-02-16T19:14:29;15;14;9
57049;PMS7003;42935;50.966;16.992;2024-02-16T19:18:23;18;14;9
57049;PMS7003;42935;50.966;16.992;2024-02-16T19:21:40;18;13;9
57049;PMS7003;42935;50.966;16.992;2024-02-16T19:24:59;19;13;9
57049;PMS7003;42935;50.966;16.992;2024-02-16T19:28:16;16;14;9
57049;PMS7003;42935;50.966;16.992;2024-02-16T19:31:38;13;11;8
57049;PMS7003;42935;50.966;16.992;2024-02-16T19:34:57;14;11;8
57049;PMS7003;42935;50.966;16.992;2024-02-16T19:38:18;18;15;10
57049;PMS7003;42935;50.966;16.992;2024-02-16T19:41:45;15;11;9
57049;PMS7003;42935;50.966;16.992;2024-02-16T19:45:08;15;13;9
57049;PMS7003;42935;50.966;16.992;2024-02-16T19:48:33;20;14;10
57049;PMS7003;42935;50.966;16.992;2024-02-16T19:51:54;15;12;9
57049;PMS7003;42935;50.966;16.992;2024-02-16T19:55:15;21;15;11
57049;PMS7003;42935;50.966;16.992;2024-02-16T19:58:35;18;15;11
57049;PMS7003;42935;50.966;16.992;2024-02-16T20:01:55;15;15;11
57049;PMS7003;42935;50.966;16.992;2024-02-16T20:05:21;20;14;10
57049;PMS7003;42935;50.966;16.992;2024-02-16T20:08:43;18;16;11
57049;PMS7003;42935;50.966;16.992;2024-02-16T20:12:04;17;16;12
57049;PMS7003;42935;50.966;16.992;2024-02-16T20:15:25;18;15;10
57049;PMS7003;42935;50.966;16.992;2024-02-16T20:18:55;19;17;11
57049;PMS7003;42935;50.966;16.992;2024-02-16T20:22:14;20;14;10
57049;PMS7003;42935;50.966;16.992;2024-02-16T20:25:39;16;13;10
57049;PMS7003;42935;50.966;16.992;2024-02-16T20:29:01;14;10;6
57049;PMS7003;42935;50.966;16.992;2024-02-16T20:32:53;20;14;10
57049;PMS7003;42935;50.966;16.992;2024-02-16T20:36:15;16;13;10
57049;PMS7003;42935;50.966;16.992;2024-02-16T20:39:36;14;13;9
57049;PMS7003;42935;50.966;16.992;2024-02-16T20:42:57;19;15;10
57049;PMS7003;42935;50.966;16.992;2024-02-16T20:46:16;18;15;10
57049;PMS7003;42935;50.966;16.992;2024-02-16T20:49:38;16;13;9
57049;PMS7003;42935;50.966;16.992;2024-02-16T20:52:54;18;14;9
57049;PMS7003;42935;50.966;16.992;2024-02-16T20:56:15;18;15;11
57049;PMS7003;42935;50.966;16.992;2024-02-16T20:59:40;18;15;11
57049;PMS7003;42935;50.966;16.992;2024-02-16T21:03:31;19;17;12
57049;PMS7003;42935;50.966;16.992;2024-02-16T21:06:53;19;15;10
57049;PMS7003;42935;50.966;16.992;2024-02-16T21:10:20;23;14;9
57049;PMS7003;42935;50.966;16.992;2024-02-16T21:13:41;17;14;10
57049;PMS7003;42935;50.966;16.992;2024-02-16T21:17:37;23;17;11
57049;PMS7003;42935;50.966;16.992;2024-02-16T21:20:55;22;17;12
57049;PMS7003;42935;50.966;16.992;2024-02-16T21:24:15;17;16;9
57049;PMS7003;42935;50.966;16.992;2024-02-16T21:27:37;17;15;11
57049;PMS7003;42935;50.966;16.992;2024-02-16T21:30:59;19;18;11
57049;PMS7003;42935;50.966;16.992;2024-02-16T21:34:19;17;14;9
57049;PMS7003;42935;50.966;16.992;2024-02-16T21:37:42;20;14;9
57049;PMS7003;42935;50.966;16.992;2024-02-16T21:41:01;22;16;12
57049;PMS7003;42935;50.966;16.992;2024-02-16T21:44:29;42;31;20
57049;PMS7003;42935;50.966;16.992;2024-02-16T21:47:58;47;34;21
57049;PMS7003;42935;50.966;16.992;2024-02-16T21:51:30;59;44;26
57049;PMS7003;42935;50.966;16.992;2024-02-16T21:54:54;66;50;30
57049;PMS7003;42935;50.966;16.992;2024-02-16T21:58:12;54;37;23